Time;durP1;ratioP1;P1;durP2;ratioP2;P2;SDS_P1;SDS_P2;PMS_P1;PMS_P2;Temp;Humidity;BMP_temperature;BMP_pressure;BME280_temperature;BME280_humidity;BME280_pressure;Samples;Min_cycle;Max_cycle;Signal;HPM_P1;HPM_P2
2023/02/18 00:00:31;;;;;;;9.57;1.85;;;7.10;99.90;;;;;;5097581;28;25048;-75
2023/02/18 00:02:58;;;;;;;10.57;2.25;;;7.10;99.90;;;;;;5095474;28;25058;-75
2023/02/18 00:05:28;;;;;;;11.68;2.40;;;7.10;99.90;;;;;;5098169;28;25074;-75
2023/02/18 00:07:56;;;;;;;11.52;1.83;;;7.10;99.90;;;;;;5097414;28;25047;-75
2023/02/18 00:10:23;;;;;;;5.35;1.30;;;7.20;99.90;;;;;;5097959;28;25106;-75
2023/02/18 00:12:50;;;;;;;5.38;1.90;;;7.20;99.90;;;;;;5079384;28;25102;-75
2023/02/18 00:15:18;;;;;;;8.45;1.85;;;7.30;99.90;;;;;;5097960;28;25123;-75
2023/02/18 00:17:46;;;;;;;12.23;1.20;;;7.30;99.90;;;;;;5097777;28;25107;-75
2023/02/18 00:20:13;;;;;;;6.72;0.88;;;7.30;99.90;;;;;;5095446;28;25095;-76
2023/02/18 00:22:40;;;;;;;9.30;1.20;;;7.20;99.90;;;;;;5079067;28;25067;-75
2023/02/18 00:25:08;;;;;;;7.35;1.25;;;7.20;99.90;;;;;;5097252;28;25112;-76
2023/02/18 00:27:35;;;;;;;11.60;1.48;;;7.10;99.90;;;;;;5097340;28;25075;-76
2023/02/18 00:30:03;;;;;;;13.93;1.83;;;7.10;99.90;;;;;;5097598;28;25068;-75
2023/02/18 00:32:31;;;;;;;7.88;1.13;;;7.10;99.90;;;;;;5097838;28;25064;-76
2023/02/18 00:34:58;;;;;;;7.65;1.52;;;7.10;99.90;;;;;;5077032;28;25093;-76
2023/02/18 00:37:25;;;;;;;8.55;1.58;;;7.10;99.90;;;;;;5097149;28;25061;-75
2023/02/18 00:39:53;;;;;;;8.15;1.67;;;7.10;99.90;;;;;;5096890;28;25106;-75
2023/02/18 00:42:20;;;;;;;7.10;1.40;;;7.00;99.90;;;;;;5096799;28;25073;-75
2023/02/18 00:44:48;;;;;;;10.43;1.83;;;7.00;99.90;;;;;;5078408;28;25065;-75
2023/02/18 00:47:15;;;;;;;12.82;1.80;;;6.90;99.90;;;;;;5096748;28;25103;-75
2023/02/18 00:49:42;;;;;;;7.13;1.35;;;6.90;99.90;;;;;;5078813;28;25078;-75
2023/02/18 00:52:09;;;;;;;8.38;2.05;;;6.80;99.90;;;;;;5078773;28;25108;-75
2023/02/18 00:54:37;;;;;;;12.93;1.80;;;6.80;99.90;;;;;;5096673;28;25069;-76
2023/02/18 00:57:04;;;;;;;11.80;3.42;;;6.80;99.90;;;;;;5096891;28;25120;-75
2023/02/18 00:59:31;;;;;;;11.73;1.90;;;6.90;99.90;;;;;;5078910;28;25103;-75
2023/02/18 01:01:58;;;;;;;9.57;2.83;;;6.80;99.90;;;;;;5078506;28;25124;-76
2023/02/18 01:04:26;;;;;;;10.10;4.10;;;6.90;99.90;;;;;;5096557;28;25100;-75
2023/02/18 01:06:53;;;;;;;18.15;4.82;;;6.90;99.90;;;;;;5095635;28;25117;-75
2023/02/18 01:09:20;;;;;;;13.38;5.63;;;7.00;99.90;;;;;;5078750;28;25088;-75
2023/02/18 01:11:47;;;;;;;18.08;5.93;;;7.10;99.90;;;;;;5097029;28;25070;-75
2023/02/18 01:14:15;;;;;;;14.07;6.45;;;7.10;99.90;;;;;;5094608;28;25062;-75
2023/02/18 01:16:42;;;;;;;20.65;6.75;;;7.20;99.90;;;;;;5078664;28;25047;-75
2023/02/18 01:19:10;;;;;;;22.35;8.10;;;7.30;99.90;;;;;;5096506;28;25064;-75
2023/02/18 01:21:37;;;;;;;20.48;8.35;;;7.40;99.90;;;;;;5096544;28;25059;-75
2023/02/18 01:24:05;;;;;;;33.45;9.75;;;7.40;99.90;;;;;;5096291;28;25073;-75
2023/02/18 01:26:33;;;;;;;22.27;9.02;;;7.50;99.90;;;;;;5078447;28;25133;-76
2023/02/18 01:29:00;;;;;;;26.67;10.02;;;7.60;99.90;;;;;;5078329;28;25063;-75
2023/02/18 01:31:27;;;;;;;26.42;11.18;;;7.60;99.90;;;;;;5081170;28;25058;-75
2023/02/18 01:33:55;;;;;;;25.58;8.95;;;7.70;99.90;;;;;;5082423;28;25126;-75
2023/02/18 01:36:22;;;;;;;31.33;10.40;;;7.70;99.90;;;;;;5100911;28;25115;-75
2023/02/18 01:38:50;;;;;;;20.98;9.45;;;7.70;99.90;;;;;;5100588;28;25056;-75
2023/02/18 01:41:17;;;;;;;26.17;10.65;;;7.70;99.90;;;;;;5101125;28;25071;-75
2023/02/18 01:43:44;;;;;;;22.65;10.80;;;7.70;99.90;;;;;;5082369;28;25077;-75
2023/02/18 01:46:19;;;;;;;23.95;10.05;;;7.70;99.90;;;;;;5083181;28;25112;-75
2023/02/18 01:48:50;;;;;;;26.98;11.45;;;7.80;99.90;;;;;;5100154;28;25114;-75
2023/02/18 01:51:34;;;;;;;29.75;10.25;;;7.70;99.90;;;;;;5100240;28;25066;-75
2023/02/18 01:54:31;;;;;;;24.77;10.90;;;7.70;99.90;;;;;;5081244;28;25129;-76
2023/02/18 01:57:07;;;;;;;22.95;11.18;;;7.80;99.90;;;;;;5081991;28;25079;-75
2023/02/18 01:59:47;;;;;;;29.20;11.80;;;7.80;99.90;;;;;;5100353;28;25111;-75
2023/02/18 02:02:20;;;;;;;29.42;12.73;;;7.80;99.90;;;;;;5099994;28;25073;-76
2023/02/18 02:04:48;;;;;;;27.02;12.07;;;7.90;99.90;;;;;;5099793;28;25063;-76
2023/02/18 02:07:17;;;;;;;26.80;12.65;;;7.90;99.90;;;;;;5081750;28;25091;-75
2023/02/18 02:09:45;;;;;;;29.15;13.45;;;7.90;99.90;;;;;;5099703;28;25089;-75
2023/02/18 02:12:34;;;;;;;32.55;13.55;;;7.90;99.90;;;;;;5081896;28;25090;-75
2023/02/18 02:15:12;;;;;;;35.30;13.52;;;8.00;99.90;;;;;;5098819;28;25095;-76
2023/02/18 02:17:59;;;;;;;32.90;13.88;;;8.00;99.90;;;;;;5080802;28;25055;-76
2023/02/18 02:21:00;;;;;;;32.00;12.32;;;8.00;99.90;;;;;;5081673;28;25066;-76
2023/02/18 02:23:38;;;;;;;31.35;14.57;;;8.00;99.90;;;;;;5081327;28;25130;-76
2023/02/18 02:26:21;;;;;;;26.13;13.13;;;8.10;99.90;;;;;;5081952;28;25063;-76
2023/02/18 02:29:01;;;;;;;37.95;14.23;;;8.10;99.90;;;;;;5081366;28;25094;-75
2023/02/18 02:31:58;;;;;;;29.73;13.65;;;8.10;99.90;;;;;;5099568;28;25116;-76
2023/02/18 02:34:43;;;;;;;31.63;14.38;;;8.10;99.90;;;;;;5081273;28;25083;-76
2023/02/18 02:37:24;;;;;;;26.15;11.05;;;8.10;99.90;;;;;;5098251;28;25080;-76
2023/02/18 02:40:02;;;;;;;32.20;14.52;;;8.10;99.90;;;;;;5099694;28;25063;-76
2023/02/18 02:43:01;;;;;;;35.35;16.20;;;8.10;99.90;;;;;;5099320;28;25126;-76
2023/02/18 02:45:56;;;;;;;32.65;14.80;;;8.10;99.90;;;;;;5065680;28;25078;-75
2023/02/18 02:48:52;;;;;;;24.42;11.05;;;8.10;99.90;;;;;;5080995;28;25114;-76
2023/02/18 02:51:40;;;;;;;35.22;15.05;;;8.20;99.90;;;;;;5099208;28;25065;-76
2023/02/18 02:54:18;;;;;;;35.35;15.02;;;8.20;99.90;;;;;;5076196;28;25114;-75
2023/02/18 02:56:46;;;;;;;35.13;16.17;;;8.20;99.90;;;;;;5098064;28;25160;-76
2023/02/18 02:59:24;;;;;;;40.45;17.90;;;8.30;99.90;;;;;;5080804;28;25085;-76
2023/02/18 03:02:10;;;;;;;40.17;17.88;;;8.20;99.90;;;;;;5080709;28;25107;-76
2023/02/18 03:04:41;;;;;;;38.25;17.48;;;8.20;99.90;;;;;;5099137;28;25074;-76
2023/02/18 03:07:21;;;;;;;34.80;16.75;;;8.20;99.90;;;;;;5080691;28;25108;-76
2023/02/18 03:10:18;;;;;;;36.35;17.95;;;8.20;99.90;;;;;;5080938;28;25110;-75
2023/02/18 03:13:27;;;;;;;39.95;19.13;;;8.20;99.90;;;;;;5080579;28;25117;-76
2023/02/18 03:16:08;;;;;;;43.05;17.38;;;8.10;99.90;;;;;;5069990;28;25136;-75
2023/02/18 03:19:10;;;;;;;39.28;16.08;;;8.10;99.90;;;;;;5098374;28;25081;-76
2023/02/18 03:22:06;;;;;;;38.00;17.30;;;8.10;99.90;;;;;;5085056;28;25144;-76
2023/02/18 03:24:43;;;;;;;46.53;19.77;;;8.10;99.90;;;;;;5098036;28;25056;-76
2023/02/18 03:27:21;;;;;;;40.72;18.15;;;8.20;99.90;;;;;;5080649;28;25052;-76
2023/02/18 03:29:57;;;;;;;46.83;19.55;;;8.20;99.90;;;;;;5098228;28;25134;-76
2023/02/18 03:32:26;;;;;;;40.55;17.95;;;8.30;99.90;;;;;;5098125;28;25091;-75
2023/02/18 03:35:02;;;;;;;41.40;17.90;;;8.30;99.90;;;;;;5097879;28;25064;-75
2023/02/18 03:37:31;;;;;;;37.35;16.85;;;8.30;99.90;;;;;;5080093;28;25066;-75
2023/02/18 03:40:01;;;;;;;43.33;18.63;;;8.40;99.90;;;;;;5097961;28;25143;-76
2023/02/18 03:42:29;;;;;;;41.78;19.42;;;8.40;99.90;;;;;;5098412;28;25063;-76
2023/02/18 03:44:56;;;;;;;40.05;18.15;;;8.40;99.90;;;;;;5098427;28;25073;-75
2023/02/18 03:47:24;;;;;;;43.42;19.30;;;8.40;99.90;;;;;;5079839;28;25089;-75
2023/02/18 03:49:52;;;;;;;39.63;18.25;;;8.40;99.90;;;;;;5098732;28;25099;-75
2023/02/18 03:52:20;;;;;;;45.83;19.95;;;8.40;99.90;;;;;;5097963;28;25131;-75
2023/02/18 03:54:47;;;;;;;44.13;18.45;;;8.40;99.90;;;;;;5097330;28;25114;-75
2023/02/18 03:57:14;;;;;;;47.45;18.80;;;8.40;99.90;;;;;;5097908;28;25051;-76
2023/02/18 03:59:42;;;;;;;39.83;19.20;;;8.50;99.90;;;;;;5098201;28;25061;-75
2023/02/18 04:02:09;;;;;;;43.05;20.33;;;8.40;99.90;;;;;;5079463;28;25052;-76
2023/02/18 04:04:37;;;;;;;45.42;19.75;;;8.40;99.90;;;;;;5079772;28;25072;-76
2023/02/18 04:07:04;;;;;;;32.63;16.05;;;8.40;99.90;;;;;;5097448;28;25059;-76
2023/02/18 04:09:32;;;;;;;40.72;18.80;;;8.50;99.90;;;;;;5079661;28;25107;-76
2023/02/18 04:11:59;;;;;;;40.67;19.75;;;8.50;99.90;;;;;;5097614;28;25147;-76
2023/02/18 04:14:26;;;;;;;40.47;18.75;;;8.50;99.90;;;;;;5078406;28;25091;-76
2023/02/18 04:16:54;;;;;;;35.53;16.15;;;8.50;99.90;;;;;;5078073;28;25115;-76
2023/02/18 04:19:21;;;;;;;38.90;15.13;;;8.50;99.90;;;;;;5097299;28;25103;-76
2023/02/18 04:21:49;;;;;;;33.53;15.98;;;8.50;99.90;;;;;;5097081;28;25063;-76
2023/02/18 04:24:19;;;;;;;32.30;14.98;;;8.50;99.90;;;;;;5079204;28;25127;-76
2023/02/18 04:26:47;;;;;;;29.52;13.98;;;8.50;99.90;;;;;;5079160;28;25082;-76
2023/02/18 04:29:14;;;;;;;37.50;12.85;;;8.60;99.90;;;;;;5077868;28;25126;-76
2023/02/18 04:31:42;;;;;;;32.13;15.25;;;8.60;99.90;;;;;;5077713;28;25062;-76
2023/02/18 04:34:09;;;;;;;32.33;13.90;;;8.60;99.90;;;;;;5097522;28;25147;-76
2023/02/18 04:36:36;;;;;;;31.90;14.43;;;8.50;99.90;;;;;;5096889;28;25089;-76
2023/02/18 04:39:03;;;;;;;29.55;13.82;;;8.60;99.90;;;;;;5096185;28;25070;-76
2023/02/18 04:41:31;;;;;;;33.70;14.45;;;8.60;99.90;;;;;;5079151;28;25069;-76
2023/02/18 04:43:59;;;;;;;35.47;15.38;;;8.60;99.90;;;;;;5078745;28;25076;-76
2023/02/18 04:46:26;;;;;;;34.25;15.07;;;8.60;99.90;;;;;;5097890;28;25101;-76
2023/02/18 04:48:54;;;;;;;38.55;16.10;;;8.60;99.90;;;;;;5078818;28;25098;-76
2023/02/18 04:51:21;;;;;;;32.00;14.30;;;8.60;99.90;;;;;;5078306;28;25094;-76
2023/02/18 04:53:48;;;;;;;30.23;13.15;;;8.60;99.90;;;;;;5079058;28;25089;-76
2023/02/18 04:56:15;;;;;;;28.55;12.98;;;8.60;99.90;;;;;;5078250;28;25124;-76
2023/02/18 04:58:42;;;;;;;31.27;13.57;;;8.60;99.90;;;;;;5078726;28;25115;-76
2023/02/18 05:01:10;;;;;;;35.33;13.20;;;8.60;99.90;;;;;;5096792;28;25084;-76
2023/02/18 05:03:38;;;;;;;33.35;14.02;;;8.60;99.90;;;;;;5096485;28;25120;-76
2023/02/18 05:06:05;;;;;;;26.30;12.73;;;8.60;99.90;;;;;;5096845;28;25080;-76
2023/02/18 05:08:33;;;;;;;28.08;11.98;;;8.60;99.90;;;;;;5096506;28;25073;-76
2023/02/18 05:11:05;;;;;;;31.95;12.38;;;8.60;99.90;;;;;;5096977;28;25057;-75
2023/02/18 05:13:32;;;;;;;25.65;11.25;;;8.60;99.90;;;;;;5096461;28;25080;-76
2023/02/18 05:16:00;;;;;;;24.70;11.18;;;8.70;99.90;;;;;;5078584;28;25057;-76
2023/02/18 05:18:27;;;;;;;20.05;9.10;;;8.60;99.90;;;;;;5096395;28;25083;-76
2023/02/18 05:20:55;;;;;;;21.25;9.32;;;8.60;99.90;;;;;;5097117;28;25090;-76
2023/02/18 05:23:23;;;;;;;21.00;8.35;;;8.70;99.90;;;;;;5079177;28;25139;-76
2023/02/18 05:25:51;;;;;;;17.70;8.48;;;8.70;99.90;;;;;;5096636;28;25070;-76
2023/02/18 05:28:18;;;;;;;16.88;8.02;;;8.70;99.90;;;;;;5076675;28;25470;-76
2023/02/18 05:30:45;;;;;;;19.38;7.95;;;8.80;99.90;;;;;;5078548;28;25049;-76
2023/02/18 05:33:12;;;;;;;19.55;8.02;;;8.80;99.90;;;;;;5096281;28;25088;-76
2023/02/18 05:35:40;;;;;;;19.92;8.35;;;8.90;99.90;;;;;;5074834;28;25086;-75
2023/02/18 05:38:08;;;;;;;24.83;10.05;;;9.00;99.90;;;;;;5073019;28;25079;-76
2023/02/18 05:40:37;;;;;;;24.65;10.82;;;9.00;99.90;;;;;;5076466;28;25130;-76
2023/02/18 05:43:04;;;;;;;27.70;10.27;;;9.10;99.90;;;;;;5076450;28;25085;-76
2023/02/18 05:45:31;;;;;;;20.45;9.52;;;9.10;99.90;;;;;;5074944;28;25135;-75
2023/02/18 05:47:59;;;;;;;27.13;11.65;;;9.20;99.90;;;;;;5076503;28;25129;-76
2023/02/18 05:50:26;;;;;;;22.83;10.27;;;9.30;99.90;;;;;;5074973;28;25054;-76
2023/02/18 05:52:54;;;;;;;24.90;10.18;;;9.30;99.90;;;;;;5074825;28;25100;-76
2023/02/18 05:55:21;;;;;;;23.42;10.90;;;9.30;99.90;;;;;;5074766;28;25055;-76
2023/02/18 05:57:48;;;;;;;21.67;9.85;;;9.30;99.90;;;;;;5076123;28;25093;-76
2023/02/18 06:00:16;;;;;;;20.80;9.93;;;9.30;99.90;;;;;;5076063;28;25080;-76
2023/02/18 06:02:43;;;;;;;24.60;10.50;;;9.30;99.90;;;;;;5074616;28;25070;-76
2023/02/18 06:05:12;;;;;;;23.73;11.32;;;9.40;99.90;;;;;;5074702;28;25053;-76
2023/02/18 06:07:45;;;;;;;24.38;10.60;;;9.40;99.90;;;;;;5075189;28;25046;-76
2023/02/18 06:10:13;;;;;;;19.92;8.43;;;9.40;99.90;;;;;;5073038;28;25053;-75
2023/02/18 06:12:40;;;;;;;15.43;8.15;;;9.40;99.90;;;;;;5074603;28;25083;-76
2023/02/18 06:15:08;;;;;;;16.02;8.00;;;9.40;99.90;;;;;;5074324;28;25027;-76
2023/02/18 06:17:35;;;;;;;18.08;7.15;;;9.40;99.90;;;;;;5076541;28;25072;-76
2023/02/18 06:20:02;;;;;;;17.85;7.13;;;9.40;99.90;;;;;;5077698;28;25059;-76
2023/02/18 06:22:29;;;;;;;14.75;6.80;;;9.40;99.90;;;;;;5078086;28;25109;-76
2023/02/18 06:24:57;;;;;;;15.40;6.60;;;9.40;99.90;;;;;;5078408;28;25050;-76
2023/02/18 06:27:25;;;;;;;11.88;5.85;;;9.40;99.90;;;;;;5078060;28;25060;-76
2023/02/18 06:29:52;;;;;;;14.57;6.65;;;9.40;99.90;;;;;;5077607;28;25117;-76
2023/02/18 06:32:19;;;;;;;13.05;5.43;;;9.40;99.90;;;;;;5079344;28;25068;-76
2023/02/18 06:34:46;;;;;;;12.82;5.85;;;9.40;99.90;;;;;;5078537;28;25088;-76
2023/02/18 06:37:14;;;;;;;12.88;6.05;;;9.50;99.90;;;;;;5096769;28;25064;-76
2023/02/18 06:39:41;;;;;;;12.45;5.75;;;9.40;99.90;;;;;;5082161;28;25074;-76
2023/02/18 06:42:11;;;;;;;11.50;4.82;;;9.50;99.90;;;;;;5081842;28;25078;-76
2023/02/18 06:44:38;;;;;;;12.13;5.47;;;9.50;99.90;;;;;;5081408;28;25041;-76
2023/02/18 06:47:06;;;;;;;12.25;5.40;;;9.50;99.90;;;;;;5099014;28;25060;-76
2023/02/18 06:49:35;;;;;;;9.25;4.40;;;9.50;99.90;;;;;;5081258;28;25058;-78
2023/02/18 06:52:02;;;;;;;10.07;4.80;;;9.50;99.90;;;;;;5080115;28;25062;-77
2023/02/18 06:54:30;;;;;;;9.73;4.28;;;9.50;99.90;;;;;;5099166;28;25086;-77
2023/02/18 06:56:57;;;;;;;9.80;3.40;;;9.50;99.90;;;;;;5099124;28;25067;-77
2023/02/18 06:59:24;;;;;;;8.35;4.00;;;9.50;99.90;;;;;;5080313;28;25050;-77
2023/02/18 07:01:51;;;;;;;7.05;2.85;;;9.50;99.90;;;;;;5080125;28;25074;-76
2023/02/18 07:04:19;;;;;;;7.55;3.53;;;9.50;99.90;;;;;;5080698;28;25095;-77
2023/02/18 07:06:46;;;;;;;4.80;2.28;;;9.50;99.90;;;;;;5098919;28;25061;-80
2023/02/18 07:09:13;;;;;;;4.03;1.88;;;9.60;99.90;;;;;;5098578;28;25075;-77
2023/02/18 07:11:40;;;;;;;4.70;1.95;;;9.60;99.90;;;;;;5099121;28;25070;-76
2023/02/18 07:14:07;;;;;;;3.47;1.63;;;9.60;99.90;;;;;;5098490;28;25075;-76
2023/02/18 07:16:35;;;;;;;3.65;1.95;;;9.60;99.90;;;;;;5080479;28;25057;-78
2023/02/18 07:19:03;;;;;;;2.53;0.98;;;9.60;99.90;;;;;;5098558;28;25142;-78
2023/02/18 07:21:30;;;;;;;2.45;1.05;;;9.60;99.90;;;;;;5098417;28;25115;-80
2023/02/18 07:23:57;;;;;;;2.55;0.98;;;9.60;99.90;;;;;;5098283;28;25458;-82
2023/02/18 07:26:25;;;;;;;3.90;0.85;;;9.60;99.90;;;;;;5080476;28;25061;-83
2023/02/18 07:28:53;;;;;;;3.47;1.08;;;9.60;99.90;;;;;;5079275;28;25074;-84
2023/02/18 07:31:20;;;;;;;1.67;0.93;;;9.70;99.90;;;;;;5080292;28;25093;-86
2023/02/18 07:33:47;;;;;;;1.17;0.65;;;9.70;99.90;;;;;;5080308;28;25075;-85
2023/02/18 07:36:14;;;;;;;1.48;0.75;;;9.70;99.90;;;;;;5098269;28;25105;-85
2023/02/18 07:38:42;;;;;;;1.60;0.75;;;9.70;99.90;;;;;;5080690;28;25054;-84
2023/02/18 07:41:21;;;;;;;1.10;0.47;;;9.70;99.90;;;;;;5080061;28;25070;-85
2023/02/18 07:43:49;;;;;;;0.82;0.40;;;9.70;99.90;;;;;;5079995;28;25066;-82
2023/02/18 07:46:16;;;;;;;1.88;0.60;;;9.70;99.90;;;;;;5080076;28;25081;-82
2023/02/18 07:48:43;;;;;;;1.00;0.43;;;9.70;99.90;;;;;;5097880;28;25112;-81
2023/02/18 07:51:12;;;;;;;0.65;0.38;;;9.70;99.90;;;;;;5098099;28;25065;-82
2023/02/18 07:53:40;;;;;;;0.77;0.32;;;9.70;99.90;;;;;;5079738;28;25088;-82
2023/02/18 07:56:07;;;;;;;2.65;0.40;;;9.80;99.90;;;;;;5079851;28;25079;-83
2023/02/18 07:58:36;;;;;;;0.85;0.30;;;9.80;99.90;;;;;;5097915;28;25054;-77
2023/02/18 08:01:13;;;;;;;0.90;0.50;;;9.80;99.90;;;;;;5079655;28;25133;-74
2023/02/18 08:03:41;;;;;;;0.98;0.32;;;9.80;99.90;;;;;;5097510;28;25049;-73
2023/02/18 08:06:19;;;;;;;1.27;0.47;;;9.90;99.90;;;;;;5097701;28;25050;-72
2023/02/18 08:08:47;;;;;;;1.05;0.50;;;9.80;99.90;;;;;;5097460;28;25049;-74
2023/02/18 08:11:15;;;;;;;1.27;0.80;;;9.80;99.90;;;;;;5097749;28;25089;-73
2023/02/18 08:13:43;;;;;;;1.55;0.80;;;9.80;99.90;;;;;;5097412;28;25055;-73
2023/02/18 08:16:10;;;;;;;1.90;0.90;;;9.80;99.90;;;;;;5097519;28;25108;-73
2023/02/18 08:18:37;;;;;;;1.88;0.90;;;9.80;99.90;;;;;;5079251;28;25094;-73
2023/02/18 08:21:04;;;;;;;4.25;1.02;;;9.80;99.90;;;;;;5097661;28;25064;-74
2023/02/18 08:23:32;;;;;;;1.38;0.70;;;9.70;99.90;;;;;;5079369;28;25060;-76
2023/02/18 08:25:59;;;;;;;1.80;1.17;;;9.70;99.90;;;;;;5097189;28;25069;-76
2023/02/18 08:28:26;;;;;;;1.85;1.00;;;9.70;99.90;;;;;;5097090;28;25108;-76
2023/02/18 08:30:54;;;;;;;1.40;0.70;;;9.70;99.90;;;;;;5097647;28;25051;-75
2023/02/18 08:33:22;;;;;;;1.13;0.60;;;9.70;99.90;;;;;;5079034;28;25075;-73
2023/02/18 08:35:51;;;;;;;1.73;0.80;;;9.80;99.90;;;;;;5097300;28;25111;-74
2023/02/18 08:38:20;;;;;;;1.42;0.70;;;9.70;99.90;;;;;;5097487;28;25107;-74
2023/02/18 08:40:48;;;;;;;0.88;0.50;;;9.70;99.90;;;;;;5096823;28;25056;-74
2023/02/18 08:43:16;;;;;;;1.00;0.50;;;9.70;99.90;;;;;;5097282;28;25057;-75
2023/02/18 08:45:44;;;;;;;1.17;0.57;;;9.80;99.90;;;;;;5097186;28;25075;-74
2023/02/18 08:48:13;;;;;;;8.52;4.93;;;9.70;99.90;;;;;;5097331;28;25073;-74
2023/02/18 08:50:40;;;;;;;1.50;0.80;;;9.70;99.90;;;;;;5096932;28;25096;-74
2023/02/18 08:53:09;;;;;;;1.15;0.60;;;9.70;99.90;;;;;;5096733;28;25070;-74
2023/02/18 08:55:43;;;;;;;1.38;0.70;;;9.70;99.90;;;;;;5096993;28;25070;-75
2023/02/18 08:58:11;;;;;;;1.35;0.70;;;9.70;99.90;;;;;;5078637;28;25108;-74
2023/02/18 09:00:41;;;;;;;2.10;1.00;;;9.70;99.90;;;;;;5097348;28;25145;-74
2023/02/18 09:03:13;;;;;;;2.38;1.40;;;9.70;99.90;;;;;;5078554;28;25102;-77
2023/02/18 09:05:41;;;;;;;2.38;1.20;;;9.70;99.90;;;;;;5097120;28;25062;-76
2023/02/18 09:08:08;;;;;;;2.15;1.17;;;9.70;99.90;;;;;;5078608;28;25080;-76
2023/02/18 09:10:38;;;;;;;2.85;1.95;;;9.70;99.90;;;;;;5097140;28;25078;-74
2023/02/18 09:13:06;;;;;;;3.78;1.83;;;9.70;99.90;;;;;;5097218;28;25082;-74
2023/02/18 09:15:34;;;;;;;2.65;1.52;;;9.70;99.90;;;;;;5078580;28;25063;-74
2023/02/18 09:18:01;;;;;;;4.30;2.28;;;9.70;99.90;;;;;;5078529;28;25061;-74
2023/02/18 09:20:28;;;;;;;3.65;2.35;;;9.70;99.90;;;;;;5097111;28;25066;-74
2023/02/18 09:22:56;;;;;;;4.47;2.17;;;9.70;99.90;;;;;;5096859;28;25056;-75
2023/02/18 09:25:24;;;;;;;3.42;2.03;;;9.70;99.90;;;;;;5096685;28;25109;-75
2023/02/18 09:27:51;;;;;;;3.97;2.15;;;9.70;99.90;;;;;;5096884;28;25070;-76
2023/02/18 09:30:19;;;;;;;4.07;1.85;;;9.80;99.90;;;;;;5096707;28;25122;-75
2023/02/18 09:32:47;;;;;;;3.58;2.22;;;9.70;99.90;;;;;;5096246;28;25060;-76
2023/02/18 09:35:15;;;;;;;4.32;2.47;;;9.70;99.90;;;;;;5096308;28;25072;-76
2023/02/18 09:37:43;;;;;;;6.00;2.97;;;9.70;99.90;;;;;;5096762;28;25092;-75
2023/02/18 09:40:30;;;;;;;2.92;1.67;;;9.70;99.90;;;;;;5078477;28;25113;-75
2023/02/18 09:42:58;;;;;;;4.20;1.60;;;9.80;99.90;;;;;;5078197;28;25126;-76
2023/02/18 09:45:25;;;;;;;3.47;2.00;;;9.90;99.90;;;;;;5078179;28;25132;-76
2023/02/18 09:47:53;;;;;;;3.30;2.00;;;9.90;99.90;;;;;;5078217;28;25062;-75
2023/02/18 09:50:32;;;;;;;2.80;2.05;;;10.00;99.90;;;;;;5096097;28;25078;-75
2023/02/18 09:53:02;;;;;;;2.92;1.80;;;10.10;99.90;;;;;;5099526;28;25093;-78
2023/02/18 09:55:33;;;;;;;2.60;1.70;;;10.30;99.90;;;;;;5082171;28;25067;-75
2023/02/18 09:58:03;;;;;;;4.10;1.85;;;10.30;99.90;;;;;;5100502;28;25107;-78
2023/02/18 10:00:39;;;;;;;2.63;1.55;;;10.30;99.90;;;;;;5081985;28;25051;-77
2023/02/18 10:03:21;;;;;;;2.72;1.77;;;10.40;99.90;;;;;;5099804;28;25064;-78
2023/02/18 10:05:58;;;;;;;5.60;2.47;;;10.40;99.90;;;;;;5099696;28;25124;-79
2023/02/18 10:08:40;;;;;;;5.78;2.95;;;10.40;99.90;;;;;;5081711;28;25158;-79
2023/02/18 10:11:18;;;;;;;5.78;3.40;;;10.40;99.90;;;;;;5099762;28;25071;-78
2023/02/18 10:13:47;;;;;;;5.07;3.80;;;10.30;99.90;;;;;;5100087;28;25102;-78
2023/02/18 10:16:20;;;;;;;5.95;3.10;;;10.20;99.90;;;;;;5085111;28;25061;-79
2023/02/18 10:18:57;;;;;;;5.43;3.63;;;10.10;99.90;;;;;;5101565;28;25046;-79
2023/02/18 10:21:31;;;;;;;5.60;4.20;;;10.00;99.90;;;;;;5084684;28;25102;-79
2023/02/18 10:24:18;;;;;;;5.73;3.73;;;10.10;99.90;;;;;;5103879;28;25056;-78
2023/02/18 10:26:46;;;;;;;5.15;3.33;;;10.10;99.90;;;;;;5081917;28;25057;-77
2023/02/18 10:29:18;;;;;;;5.07;3.17;;;10.00;99.90;;;;;;5099717;28;25157;-78
2023/02/18 10:31:57;;;;;;;3.97;2.38;;;10.00;99.90;;;;;;5099603;28;25121;-78
2023/02/18 10:34:31;;;;;;;3.30;2.05;;;10.00;99.90;;;;;;5099455;28;25061;-78
2023/02/18 10:37:07;;;;;;;3.30;2.42;;;10.00;99.90;;;;;;5099176;28;25069;-78
2023/02/18 10:39:59;;;;;;;2.97;2.22;;;10.00;99.90;;;;;;5099286;28;25067;-79
2023/02/18 10:42:30;;;;;;;2.97;1.98;;;9.90;99.90;;;;;;5081088;28;25057;-78
2023/02/18 10:45:08;;;;;;;5.55;2.22;;;9.90;99.90;;;;;;5099260;28;25140;-78
2023/02/18 10:47:57;;;;;;;3.50;2.10;;;9.80;99.90;;;;;;5081099;28;25076;-79
2023/02/18 10:50:44;;;;;;;3.30;2.10;;;9.80;99.90;;;;;;5081105;28;25112;-78
2023/02/18 10:53:38;;;;;;;3.30;2.33;;;9.80;99.90;;;;;;5098934;28;25140;-74
2023/02/18 10:56:07;;;;;;;4.50;2.40;;;9.70;99.90;;;;;;5099114;28;25064;-74
2023/02/18 10:58:47;;;;;;;3.72;2.05;;;9.70;99.90;;;;;;5098798;28;25106;-74
2023/02/18 11:01:21;;;;;;;3.70;2.30;;;9.60;99.90;;;;;;5098790;28;25090;-74
2023/02/18 11:03:51;;;;;;;3.10;2.22;;;9.60;99.90;;;;;;5080573;28;25051;-74
2023/02/18 11:06:20;;;;;;;3.92;2.70;;;9.60;99.90;;;;;;5098704;28;25089;-74
2023/02/18 11:08:48;;;;;;;4.90;2.78;;;9.60;99.90;;;;;;5080686;28;25100;-74
2023/02/18 11:11:38;;;;;;;3.70;2.33;;;9.60;99.90;;;;;;5081088;28;25123;-74
2023/02/18 11:14:14;;;;;;;3.20;2.38;;;9.70;99.90;;;;;;5098616;28;25078;-74
2023/02/18 11:16:43;;;;;;;5.95;2.60;;;9.70;99.90;;;;;;5098828;28;25120;-74
2023/02/18 11:19:36;;;;;;;3.90;2.83;;;9.60;99.90;;;;;;5098651;28;25111;-73
2023/02/18 11:22:24;;;;;;;3.63;2.42;;;9.60;99.90;;;;;;5098595;28;25073;-74
2023/02/18 11:25:00;;;;;;;3.70;2.40;;;9.60;99.90;;;;;;5080431;28;25064;-75
2023/02/18 11:27:46;;;;;;;4.18;2.70;;;9.60;99.90;;;;;;5098495;28;25062;-74
2023/02/18 11:30:26;;;;;;;4.53;3.10;;;9.60;99.90;;;;;;5098379;28;25078;-73
2023/02/18 11:33:02;;;;;;;4.90;3.20;;;9.60;99.90;;;;;;5098459;28;25141;-74
2023/02/18 11:35:32;;;;;;;3.95;2.65;;;9.50;99.90;;;;;;5080581;28;25071;-74
2023/02/18 11:38:03;;;;;;;5.70;2.80;;;9.50;99.90;;;;;;5098323;28;25126;-74
2023/02/18 11:40:35;;;;;;;6.40;3.35;;;9.40;99.90;;;;;;5098160;28;25146;-73
2023/02/18 11:43:12;;;;;;;5.85;2.95;;;9.40;99.90;;;;;;5097915;28;25058;-73
2023/02/18 11:45:41;;;;;;;6.75;3.13;;;9.40;99.90;;;;;;5097993;28;25099;-74
2023/02/18 11:48:18;;;;;;;5.82;2.90;;;9.40;99.90;;;;;;5097858;28;25086;-73
2023/02/18 11:50:52;;;;;;;8.00;3.40;;;9.30;99.90;;;;;;5098265;28;25070;-74
2023/02/18 11:53:36;;;;;;;5.90;3.13;;;9.30;99.90;;;;;;5079768;28;25063;-73
2023/02/18 11:56:16;;;;;;;8.15;4.47;;;9.20;99.90;;;;;;5097797;28;25073;-74
2023/02/18 11:58:47;;;;;;;7.75;3.60;;;9.20;99.90;;;;;;5079790;28;25108;-74
2023/02/18 12:01:30;;;;;;;6.18;4.05;;;9.30;99.90;;;;;;5097851;28;25058;-74
2023/02/18 12:04:18;;;;;;;6.32;4.28;;;9.20;99.90;;;;;;5097869;28;25134;-77
2023/02/18 12:07:06;;;;;;;7.68;4.63;;;9.20;99.90;;;;;;5097517;28;25068;-74
2023/02/18 12:09:40;;;;;;;6.13;3.65;;;9.30;99.90;;;;;;5098046;28;25085;-74
2023/02/18 12:12:12;;;;;;;5.55;3.75;;;9.30;99.90;;;;;;5097383;28;25076;-74
2023/02/18 12:14:40;;;;;;;6.75;3.97;;;9.20;99.90;;;;;;5097057;28;25070;-74
2023/02/18 12:17:43;;;;;;;7.30;4.03;;;9.20;99.90;;;;;;5097330;28;25062;-73
2023/02/18 12:20:36;;;;;;;5.40;3.60;;;9.20;99.90;;;;;;5079231;28;25089;-74
2023/02/18 12:23:19;;;;;;;6.43;3.70;;;9.20;99.90;;;;;;5097892;28;25060;-77
2023/02/18 12:26:18;;;;;;;4.57;3.10;;;9.20;99.90;;;;;;5079293;28;25107;-73
2023/02/18 12:29:21;;;;;;;4.82;3.05;;;9.20;99.90;;;;;;5097136;28;25136;-75
2023/02/18 12:32:01;;;;;;;5.65;3.97;;;9.10;99.90;;;;;;5095578;28;25090;-74
2023/02/18 12:34:39;;;;;;;11.77;4.35;;;9.10;99.90;;;;;;5079441;28;25128;-74
2023/02/18 12:37:07;;;;;;;7.72;3.47;;;9.10;99.90;;;;;;5075418;28;25068;-74
2023/02/18 12:40:02;;;;;;;6.80;3.83;;;9.10;99.90;;;;;;5077268;28;25094;-74
2023/02/18 12:42:55;;;;;;;5.78;3.50;;;9.10;99.90;;;;;;5076560;28;25065;-75
2023/02/18 12:45:57;;;;;;;5.15;2.92;;;9.10;99.90;;;;;;5076961;28;25058;-74
2023/02/18 12:48:52;;;;;;;7.07;3.83;;;9.20;99.90;;;;;;5076813;28;25117;-75
2023/02/18 12:51:43;;;;;;;5.28;3.53;;;9.10;99.90;;;;;;5076532;28;25058;-74
2023/02/18 12:54:46;;;;;;;5.05;3.30;;;9.10;99.90;;;;;;5075584;28;25093;-74
2023/02/18 12:57:21;;;;;;;5.68;3.20;;;9.10;99.90;;;;;;5076519;28;25061;-75
2023/02/18 13:00:14;;;;;;;4.17;2.90;;;9.00;99.90;;;;;;5076784;28;25124;-74
2023/02/18 13:03:35;;;;;;;6.50;2.80;;;9.00;99.90;;;;;;5076915;28;25060;-74
2023/02/18 13:06:17;;;;;;;4.60;2.78;;;8.90;99.90;;;;;;4995567;28;25112;-75
2023/02/18 13:09:24;;;;;;;5.13;2.55;;;9.00;99.90;;;;;;5068800;28;25063;-75
2023/02/18 13:12:13;;;;;;;6.18;3.20;;;9.00;99.90;;;;;;5076624;28;25135;-74
2023/02/18 13:15:01;;;;;;;3.70;2.05;;;9.00;99.90;;;;;;5077053;28;25093;-74
2023/02/18 13:17:37;;;;;;;4.68;2.88;;;9.00;99.90;;;;;;5076484;28;25118;-75